Time;durP1;ratioP1;P1;durP2;ratioP2;P2;SDS_P1;SDS_P2;PMS_P1;PMS_P2;Temp;Humidity;BMP_temperature;BMP_pressure;BME280_temperature;BME280_humidity;BME280_pressure;Samples;Min_cycle;Max_cycle;Signal;HPM_P1;HPM_P2
2022/01/22 00:01:05;;;;;;;14.80;6.40;;;;;-4.60;97519.60;;;;111652;1241;41165;-60
2022/01/22 00:03:37;;;;;;;13.60;6.20;;;;;-4.60;97518.80;;;;111804;1242;41432;-60
2022/01/22 00:06:07;;;;;;;14.60;5.90;;;;;-4.62;97522.60;;;;111532;1244;41939;-60
2022/01/22 00:08:37;;;;;;;16.10;6.50;;;;;-4.60;97523.40;;;;111769;1242;41341;-59
2022/01/22 00:11:07;;;;;;;14.70;7.00;;;;;-4.70;97523.20;;;;111788;1244;41212;-60
2022/01/22 00:16:25;;;;;;;14.00;6.50;;;;;-4.78;97518.60;;;;111667;1242;41117;-60
2022/01/22 00:18:55;;;;;;;19.10;6.30;;;;;-4.74;97526.20;;;;111784;1242;42548;-62
2022/01/22 00:21:24;;;;;;;19.10;7.40;;;;;-4.76;97514.60;;;;111412;1244;41507;-59
2022/01/22 00:23:57;;;;;;;17.00;7.10;;;;;-4.78;97511.00;;;;111385;1244;41531;-59
2022/01/22 00:26:26;;;;;;;14.50;6.30;;;;;-4.70;97501.80;;;;111704;1241;41253;-59
2022/01/22 00:28:56;;;;;;;13.50;6.20;;;;;-4.70;97494.40;;;;111747;1243;41467;-59
2022/01/22 00:31:26;;;;;;;13.90;6.10;;;;;-4.60;97493.60;;;;111717;1244;41375;-60
2022/01/22 00:33:55;;;;;;;13.20;6.00;;;;;-4.54;97489.40;;;;111414;1242;41124;-60
2022/01/22 00:36:25;;;;;;;13.10;5.80;;;;;-4.50;97485.80;;;;111830;1243;41244;-58
2022/01/22 00:38:55;;;;;;;13.30;6.10;;;;;-4.50;97485.60;;;;111799;1243;41259;-59
2022/01/22 00:41:25;;;;;;;14.70;6.80;;;;;-4.50;97486.20;;;;111808;1242;41167;-59
2022/01/22 00:43:57;;;;;;;15.10;6.40;;;;;-4.56;97484.00;;;;111681;1241;42191;-60
2022/01/22 00:46:27;;;;;;;17.00;6.20;;;;;-4.58;97488.40;;;;111644;1243;41276;-59
2022/01/22 00:48:57;;;;;;;17.70;5.50;;;;;-4.60;97484.20;;;;111546;1244;41139;-59
2022/01/22 00:51:27;;;;;;;;;;;;;-4.60;97484.20;;;;111834;1241;41616;-60
2022/01/22 00:53:58;;;;;;;14.90;6.20;;;;;-4.60;97477.00;;;;111738;1241;42119;-59
2022/01/22 00:56:28;;;;;;;18.90;6.70;;;;;-4.60;97471.80;;;;111523;1244;42174;-59
2022/01/22 00:58:57;;;;;;;15.30;6.20;;;;;-4.64;97476.00;;;;111810;1244;41612;-61
2022/01/22 01:01:28;;;;;;;13.30;5.40;;;;;-4.60;97468.20;;;;111488;1244;41142;-59
2022/01/22 01:04:01;;;;;;;;;;;;;-4.60;97467.60;;;;111474;1243;41148;-59
2022/01/22 01:06:31;;;;;;;13.30;5.90;;;;;-4.60;97471.00;;;;111650;1242;41588;-59
2022/01/22 01:09:03;;;;;;;13.70;6.30;;;;;-4.60;97467.20;;;;111483;1244;41278;-59
2022/01/22 01:11:37;;;;;;;12.70;5.80;;;;;-4.60;97470.00;;;;111662;1243;41563;-59
2022/01/22 01:14:11;;;;;;;12.30;5.80;;;;;-4.60;97465.60;;;;111931;1241;41391;-62
2022/01/22 01:33:30;;;;;;;11.70;5.60;;;;;-4.80;97443.20;;;;111590;1244;41149;-60
2022/01/22 01:36:05;;;;;;;13.00;5.50;;;;;-4.86;97439.40;;;;111838;1241;41135;-62
2022/01/22 01:38:42;;;;;;;12.80;6.10;;;;;-4.90;97442.00;;;;111787;1241;41147;-60
2022/01/22 01:41:23;;;;;;;11.00;5.40;;;;;-4.90;97436.80;;;;111761;1243;42388;-60
2022/01/22 01:43:53;;;;;;;11.90;5.40;;;;;-4.86;97439.80;;;;111565;1243;41131;-62
2022/01/22 01:46:53;;;;;;;14.90;5.50;;;;;-4.80;97438.20;;;;111542;1243;41211;-61
2022/01/22 01:49:23;;;;;;;13.40;6.10;;;;;-4.80;97433.60;;;;111630;1244;41142;-62
2022/01/22 01:51:55;;;;;;;14.70;5.80;;;;;-4.80;97431.00;;;;111460;1244;41247;-61
2022/01/22 01:54:34;;;;;;;14.30;6.30;;;;;-4.80;97428.00;;;;111478;1244;41253;-60
2022/01/22 01:59:55;;;;;;;12.10;5.60;;;;;-4.78;97413.80;;;;111546;1244;41197;-60
2022/01/22 02:02:45;;;;;;;14.80;6.10;;;;;-4.80;97410.40;;;;111809;1241;41173;-59
2022/01/22 02:05:21;;;;;;;11.60;5.80;;;;;-4.80;97401.40;;;;111543;1244;41151;-61
2022/01/22 02:07:55;;;;;;;11.70;5.60;;;;;-4.80;97400.40;;;;111856;1241;41142;-59
2022/01/22 02:10:31;;;;;;;14.30;5.50;;;;;-4.90;97405.60;;;;111624;1244;41237;-61
2022/01/22 02:24:26;;;;;;;13.80;6.20;;;;;-5.10;97406.00;;;;111544;1244;41629;-60
2022/01/22 02:26:58;;;;;;;12.70;6.00;;;;;-5.10;97406.20;;;;111551;1241;41757;-60
2022/01/22 02:29:33;;;;;;;15.90;6.00;;;;;-5.10;97404.40;;;;111616;1244;41112;-60
2022/01/22 02:35:28;;;;;;;14.30;6.60;;;;;-5.02;97408.20;;;;111746;1244;41887;-61
2022/01/22 02:38:04;;;;;;;16.80;6.50;;;;;-5.00;97410.20;;;;111788;1243;41248;-60
2022/01/22 02:40:44;;;;;;;13.10;6.30;;;;;-4.98;97405.40;;;;111675;1241;41737;-59
2022/01/22 02:43:15;;;;;;;13.30;6.40;;;;;-4.90;97403.40;;;;111667;1242;41138;-61
2022/01/22 02:45:46;;;;;;;15.10;7.10;;;;;-5.00;97404.40;;;;111483;1243;41254;-59
2022/01/22 02:48:16;;;;;;;16.20;7.00;;;;;-4.90;97397.40;;;;111707;1241;41624;-61
2022/01/22 02:50:46;;;;;;;16.40;7.80;;;;;-4.90;97405.40;;;;111572;1244;41635;-60
2022/01/22 02:53:16;;;;;;;15.80;7.70;;;;;-4.90;97401.40;;;;111710;1242;41279;-59
2022/01/22 02:55:46;;;;;;;16.70;7.80;;;;;-4.88;97399.60;;;;111146;1244;41164;-59
2022/01/22 02:58:16;;;;;;;18.90;7.70;;;;;-4.80;97398.80;;;;111554;1244;41662;-60
2022/01/22 03:00:47;;;;;;;16.10;7.40;;;;;-4.80;97407.00;;;;111658;1244;41124;-59
2022/01/22 03:03:18;;;;;;;15.70;7.50;;;;;-4.80;97399.60;;;;111436;1244;41148;-60
2022/01/22 03:05:48;;;;;;;16.70;7.50;;;;;-4.80;97400.60;;;;111454;1239;41483;-58
2022/01/22 03:08:19;;;;;;;18.80;7.70;;;;;-4.80;97398.80;;;;111728;1241;41742;-59
2022/01/22 03:10:51;;;;;;;13.80;6.70;;;;;-4.80;97400.60;;;;111799;1241;41183;-62
2022/01/22 03:17:08;;;;;;;13.40;5.80;;;;;-4.70;97400.00;;;;111813;1241;41923;-60
2022/01/22 03:19:12;;;;;;;12.80;5.80;;;;;-4.70;97396.00;;;;111682;1243;42371;-59
2022/01/22 03:21:55;;;;;;;18.80;6.90;;;;;-4.70;97393.00;;;;111652;1243;42215;-63
2022/01/22 03:27:23;;;;;;;15.00;6.30;;;;;-4.60;97388.40;;;;111449;1243;41177;-60
2022/01/22 03:29:53;;;;;;;15.70;6.70;;;;;-4.60;97389.20;;;;111727;1241;41193;-60
2022/01/22 03:32:29;;;;;;;11.90;5.70;;;;;-4.52;97389.20;;;;111491;1244;41605;-59
2022/01/22 03:35:09;;;;;;;13.40;5.70;;;;;-4.50;97387.20;;;;111501;1244;41246;-59
2022/01/22 03:37:41;;;;;;;12.50;5.50;;;;;-4.40;97385.00;;;;111552;1241;41211;-60
2022/01/22 03:40:13;;;;;;;13.20;5.70;;;;;-4.40;97373.20;;;;111509;1241;42410;-60
2022/01/22 03:42:43;;;;;;;11.60;5.50;;;;;-4.30;97365.40;;;;111357;1245;41254;-58
2022/01/22 03:45:13;;;;;;;12.70;5.20;;;;;-4.30;97365.40;;;;111463;1244;41925;-59
2022/01/22 03:47:43;;;;;;;10.70;5.00;;;;;-4.20;97360.20;;;;111435;1244;41445;-58
2022/01/22 03:50:15;;;;;;;9.70;4.10;;;;;-4.20;97357.20;;;;111661;1241;40853;-58
2022/01/22 03:52:44;;;;;;;12.10;5.20;;;;;-4.16;97355.80;;;;111549;1244;42305;-58
2022/01/22 03:55:31;;;;;;;11.60;5.30;;;;;-4.10;97348.80;;;;111432;1244;41134;-59
2022/01/22 03:58:36;;;;;;;10.50;4.30;;;;;-4.10;97337.60;;;;111042;1242;41268;-59
2022/01/22 04:02:10;;;;;;;11.30;4.80;;;;;-4.10;97343.60;;;;111409;1241;41277;-60
2022/01/22 04:04:44;;;;;;;12.00;4.20;;;;;-4.20;97337.60;;;;111486;1244;41259;-62
2022/01/22 04:09:46;;;;;;;12.00;4.60;;;;;-4.30;97339.00;;;;111259;1244;41908;-58
2022/01/22 04:12:25;;;;;;;13.30;4.70;;;;;-4.28;97337.60;;;;111267;1245;41643;-59
2022/01/22 04:15:00;;;;;;;15.00;5.90;;;;;-4.40;97337.80;;;;111510;1244;41442;-61
2022/01/22 04:25:40;;;;;;;16.00;6.10;;;;;-4.30;97325.20;;;;111643;1244;41134;-61
2022/01/22 04:28:12;;;;;;;12.80;5.30;;;;;-4.40;97330.80;;;;111421;1241;41255;-62
2022/01/22 04:30:43;;;;;;;13.20;5.50;;;;;-4.34;97329.80;;;;111436;1242;41151;-60
2022/01/22 04:33:14;;;;;;;14.90;5.30;;;;;-4.30;97330.60;;;;111579;1243;41925;-62
2022/01/22 04:35:45;;;;;;;14.80;6.40;;;;;-4.30;97329.40;;;;111494;1244;41121;-58
2022/01/22 04:38:14;;;;;;;14.20;5.80;;;;;-4.20;97327.80;;;;111803;1241;42317;-58
2022/01/22 04:40:44;;;;;;;12.50;5.30;;;;;-4.20;97328.80;;;;111694;1241;41393;-60
2022/01/22 04:43:14;;;;;;;12.30;4.70;;;;;-4.10;97330.80;;;;111696;1241;41121;-59
2022/01/22 04:45:54;;;;;;;12.40;5.80;;;;;-4.10;97329.40;;;;111443;1241;41256;-59
2022/01/22 04:48:42;;;;;;;14.90;6.60;;;;;-4.06;97335.20;;;;111814;1241;41434;-61
2022/01/22 04:56:56;;;;;;;17.70;7.20;;;;;-3.98;97346.40;;;;111691;1241;42547;-59
2022/01/22 04:59:25;;;;;;;16.00;7.20;;;;;-4.00;97352.20;;;;111427;1244;41193;-59
2022/01/22 05:01:55;;;;;;;15.40;6.90;;;;;-4.00;97353.00;;;;111424;1244;41953;-59
2022/01/22 05:04:43;;;;;;;15.10;7.50;;;;;-4.00;97351.20;;;;111725;1241;41599;-59
2022/01/22 05:07:33;;;;;;;14.30;6.90;;;;;-4.10;97355.20;;;;111444;1243;41471;-61
2022/01/22 05:10:18;;;;;;;18.30;7.90;;;;;-4.10;97357.00;;;;111731;1241;41274;-58
2022/01/22 05:12:49;;;;;;;22.70;7.50;;;;;-4.24;97366.80;;;;111368;1244;41253;-60
2022/01/22 05:15:18;;;;;;;18.30;8.10;;;;;-4.36;97361.80;;;;111443;1241;41608;-58
2022/01/22 05:17:48;;;;;;;18.80;7.90;;;;;-4.32;97359.20;;;;111348;1244;41995;-59
2022/01/22 05:23:06;;;;;;;15.40;6.80;;;;;-4.40;97363.60;;;;111381;1244;41531;-59
2022/01/22 05:25:42;;;;;;;15.90;6.50;;;;;-4.50;97364.60;;;;111341;1244;41151;-60
2022/01/22 05:28:46;;;;;;;16.50;7.90;;;;;-4.40;97368.20;;;;111420;1244;42076;-59
2022/01/22 05:37:03;;;;;;;15.50;7.50;;;;;-4.48;97357.80;;;;111558;1243;41195;-60
2022/01/22 05:39:35;;;;;;;14.90;7.70;;;;;-4.50;97360.80;;;;111635;1242;41398;-59
2022/01/22 05:42:09;;;;;;;18.30;7.80;;;;;-4.40;97361.80;;;;111529;1244;41138;-60
2022/01/22 05:44:38;;;;;;;19.20;8.10;;;;;-4.40;97363.40;;;;111720;1241;41120;-61
2022/01/22 05:47:08;;;;;;;15.60;7.70;;;;;-4.40;97363.80;;;;111520;1244;41652;-61
2022/01/22 05:49:41;;;;;;;16.00;7.20;;;;;-4.40;97357.00;;;;111530;1241;42415;-62
2022/01/22 05:52:13;;;;;;;18.00;7.70;;;;;-4.40;97355.40;;;;111709;1243;41138;-61
2022/01/22 06:00:33;;;;;;;18.00;8.50;;;;;-4.20;97362.60;;;;111450;1241;41549;-60
2022/01/22 06:03:11;;;;;;;22.20;10.00;;;;;-4.20;97359.00;;;;111729;1241;41189;-60
2022/01/22 06:05:41;;;;;;;18.90;9.20;;;;;-4.10;97361.00;;;;111412;1242;41161;-60
2022/01/22 06:08:15;;;;;;;17.70;7.90;;;;;-4.04;97359.60;;;;111499;1244;41547;-59
2022/01/22 06:10:54;;;;;;;17.20;8.20;;;;;-4.00;97356.20;;;;111700;1243;41177;-59
2022/01/22 06:13:30;;;;;;;17.40;7.60;;;;;-4.00;97358.40;;;;111559;1242;41268;-58
2022/01/22 06:16:00;;;;;;;16.10;7.10;;;;;-3.90;97360.60;;;;111319;1244;41152;-59
2022/01/22 06:18:55;;;;;;;17.20;7.90;;;;;-3.80;97358.80;;;;111459;1242;41340;-62
2022/01/22 06:21:24;;;;;;;16.30;7.60;;;;;-3.70;97364.00;;;;111683;1242;40892;-59
2022/01/22 06:23:54;;;;;;;19.90;8.50;;;;;-3.70;97359.80;;;;111452;1244;41126;-61
2022/01/22 06:26:24;;;;;;;18.60;8.60;;;;;-3.60;97355.00;;;;111727;1241;41425;-60
2022/01/22 06:28:53;;;;;;;16.60;7.60;;;;;-3.50;97353.20;;;;111859;1241;41595;-60
2022/01/22 06:31:26;;;;;;;17.10;7.60;;;;;-3.58;97359.40;;;;111646;1243;41152;-60
2022/01/22 06:33:58;;;;;;;17.70;7.60;;;;;-3.70;97358.20;;;;111460;1242;41189;-59
2022/01/22 06:36:28;;;;;;;16.40;7.10;;;;;-3.76;97362.20;;;;111598;1244;41895;-60
2022/01/22 06:39:12;;;;;;;16.20;7.40;;;;;-3.70;97367.80;;;;111608;1243;42459;-59
2022/01/22 06:42:02;;;;;;;15.70;7.20;;;;;-3.70;97358.40;;;;111794;1241;41405;-62
2022/01/22 06:44:54;;;;;;;14.70;6.00;;;;;-3.60;97359.20;;;;111772;1241;41682;-62
2022/01/22 06:47:43;;;;;;;15.20;7.20;;;;;-3.50;97355.20;;;;111731;1242;42287;-62
2022/01/22 06:50:19;;;;;;;17.60;7.30;;;;;-3.50;97355.80;;;;111672;1241;41682;-61
2022/01/22 06:53:03;;;;;;;14.50;6.70;;;;;-3.50;97353.20;;;;111707;1242;41886;-62
2022/01/22 06:55:51;;;;;;;;;;;;;-3.50;97351.00;;;;111744;1242;41281;-60
2022/01/22 06:58:20;;;;;;;15.40;7.10;;;;;-3.54;97348.00;;;;111443;1243;41137;-58
2022/01/22 07:00:59;;;;;;;15.10;6.80;;;;;-3.60;97349.60;;;;111516;1241;42202;-59
2022/01/22 07:03:34;;;;;;;15.30;7.40;;;;;-3.60;97349.80;;;;111461;1241;41253;-61
2022/01/22 07:06:13;;;;;;;15.20;7.00;;;;;-3.50;97351.00;;;;111522;1244;41117;-60
2022/01/22 07:08:42;;;;;;;16.20;7.00;;;;;-3.40;97354.20;;;;111543;1244;41147;-59
2022/01/22 07:11:12;;;;;;;14.50;7.70;;;;;-3.40;97353.60;;;;111557;1244;41122;-60
2022/01/22 07:13:43;;;;;;;14.80;7.50;;;;;-3.44;97347.80;;;;111563;1243;41266;-58
2022/01/22 07:16:13;;;;;;;14.90;6.90;;;;;-3.40;97345.00;;;;111399;1244;41138;-58
2022/01/22 07:18:44;;;;;;;14.50;6.40;;;;;-3.30;97354.20;;;;111528;1243;41262;-58
2022/01/22 07:21:19;;;;;;;15.20;6.50;;;;;-3.10;97353.40;;;;111574;1243;41466;-58
2022/01/22 07:26:26;;;;;;;14.20;6.80;;;;;-2.62;97355.00;;;;111619;1241;41595;-60
2022/01/22 07:29:00;;;;;;;15.60;6.90;;;;;-2.46;97348.20;;;;111375;1244;41482;-61
2022/01/22 07:31:35;;;;;;;14.20;7.30;;;;;-2.50;97349.00;;;;111509;1243;42079;-60
2022/01/22 07:34:05;;;;;;;15.90;7.60;;;;;-2.40;97347.80;;;;111207;1244;41726;-62
2022/01/22 07:36:38;;;;;;;19.00;7.10;;;;;-2.30;97348.40;;;;111503;1242;42312;-61
2022/01/22 07:39:08;;;;;;;15.80;7.40;;;;;-2.32;97353.60;;;;111383;1244;42038;-58
2022/01/22 07:41:53;;;;;;;16.60;7.00;;;;;-2.64;97359.40;;;;111734;1239;41258;-60
2022/01/22 07:44:43;;;;;;;;;;;;;-2.46;97360.80;;;;111482;1241;41611;-59
2022/01/22 07:47:15;;;;;;;;;;;;;-2.30;97352.20;;;;111742;1241;41114;-59
2022/01/22 07:49:46;;;;;;;14.70;6.00;;;;;-2.18;97358.60;;;;111464;1244;41934;-60
2022/01/22 07:52:17;;;;;;;;;;;;;-2.20;97358.00;;;;111498;1244;41311;-58
2022/01/22 07:54:47;;;;;;;14.20;6.30;;;;;-2.18;97361.40;;;;111810;1242;41160;-61
2022/01/22 07:57:17;;;;;;;14.70;5.90;;;;;-2.20;97356.00;;;;111505;1244;41681;-61
2022/01/22 07:59:46;;;;;;;12.00;5.90;;;;;-2.10;97355.80;;;;111526;1241;41145;-56
2022/01/22 08:02:15;;;;;;;14.20;6.80;;;;;-1.80;97354.80;;;;111790;1241;41252;-60
2022/01/22 08:05:07;;;;;;;13.40;6.20;;;;;-1.70;97356.40;;;;111630;1241;41720;-60
2022/01/22 08:07:54;;;;;;;13.80;6.10;;;;;-1.66;97361.00;;;;111693;1241;41146;-58
2022/01/22 08:10:42;;;;;;;13.30;6.60;;;;;-1.36;97356.40;;;;111490;1244;41138;-58
2022/01/22 08:13:11;;;;;;;12.50;6.00;;;;;-1.40;97359.40;;;;111513;1242;41242;-59
2022/01/22 08:15:40;;;;;;;12.80;5.80;;;;;-1.50;97365.60;;;;111318;1243;41129;-59
2022/01/22 08:18:09;;;;;;;14.10;6.30;;;;;-1.58;97361.00;;;;111459;1244;41303;-60
2022/01/22 08:20:38;;;;;;;14.00;6.20;;;;;-1.68;97366.00;;;;111728;1242;42406;-60
2022/01/22 08:23:27;;;;;;;15.00;7.00;;;;;-1.80;97369.00;;;;111573;1242;41710;-59
2022/01/22 08:26:33;;;;;;;14.30;6.40;;;;;-2.14;97381.60;;;;111560;1243;41263;-60
2022/01/22 08:29:18;;;;;;;17.90;7.80;;;;;-1.88;97371.80;;;;111763;1241;41234;-59
2022/01/22 08:32:05;;;;;;;16.70;6.70;;;;;-2.14;97375.80;;;;111403;1244;41253;-59
2022/01/22 08:37:25;;;;;;;13.80;6.60;;;;;-1.48;97367.40;;;;111901;1243;41265;-59
2022/01/22 08:39:54;;;;;;;14.10;6.30;;;;;-1.88;97366.40;;;;111829;1241;41927;-59
2022/01/22 08:42:24;;;;;;;12.90;6.00;;;;;-1.24;97360.40;;;;111354;1243;41626;-58
2022/01/22 08:44:54;;;;;;;14.70;5.90;;;;;-1.14;97364.40;;;;111426;1244;42327;-59
2022/01/22 08:47:23;;;;;;;19.10;8.40;;;;;-0.90;97367.40;;;;111516;1241;41163;-59
2022/01/22 08:49:52;;;;;;;14.30;6.30;;;;;-0.80;97372.20;;;;111490;1243;41150;-58
2022/01/22 08:52:26;;;;;;;13.60;5.60;;;;;-1.32;97376.60;;;;111726;1241;41145;-60
2022/01/22 08:54:56;;;;;;;14.60;6.10;;;;;-1.82;97374.60;;;;111546;1244;41246;-61
2022/01/22 08:57:26;;;;;;;12.10;5.70;;;;;-1.40;97375.20;;;;111472;1241;41135;-59
2022/01/22 09:00:22;;;;;;;17.80;8.90;;;;;-1.46;97377.20;;;;111211;1243;535717;-59
2022/01/22 09:02:59;;;;;;;13.30;5.70;;;;;-1.20;97375.40;;;;111445;1242;41130;-60
2022/01/22 09:05:36;;;;;;;13.50;5.30;;;;;-1.82;97381.40;;;;111590;1243;41148;-61
2022/01/22 09:08:24;;;;;;;14.20;5.30;;;;;-1.54;97389.00;;;;111763;1241;41155;-59
2022/01/22 09:11:29;;;;;;;11.70;5.10;;;;;-1.50;97384.60;;;;110969;1248;41135;-59
2022/01/22 09:14:00;;;;;;;11.00;5.30;;;;;-1.76;97380.00;;;;111579;1243;42264;-60
2022/01/22 09:16:37;;;;;;;11.70;5.60;;;;;-1.70;97378.40;;;;111572;1244;41139;-59
2022/01/22 09:19:10;;;;;;;12.20;5.50;;;;;-1.94;97385.40;;;;111602;1244;41204;-59
2022/01/22 09:21:44;;;;;;;12.80;5.60;;;;;-1.82;97390.40;;;;111359;1244;42345;-58
2022/01/22 09:24:15;;;;;;;16.30;7.20;;;;;-1.80;97386.40;;;;111498;1242;41245;-58
2022/01/22 09:26:50;;;;;;;13.00;5.90;;;;;-2.22;97389.80;;;;111514;1241;42114;-59
2022/01/22 09:29:20;;;;;;;14.50;6.80;;;;;-2.56;97393.20;;;;111496;1241;41130;-59
2022/01/22 09:31:50;;;;;;;14.10;6.30;;;;;-2.60;97390.80;;;;111775;1241;41229;-58
2022/01/22 09:34:42;;;;;;;16.20;6.70;;;;;-2.78;97396.60;;;;111653;1241;41211;-59
2022/01/22 09:37:36;;;;;;;14.60;7.00;;;;;-2.60;97390.20;;;;111742;1241;41159;-58
2022/01/22 09:40:27;;;;;;;;;;;;;-2.80;97399.80;;;;111696;1241;41613;-59
2022/01/22 09:43:28;;;;;;;16.90;7.60;;;;;-2.94;97399.20;;;;111435;1243;41136;-58
2022/01/22 09:46:22;;;;;;;14.70;7.30;;;;;-2.96;97396.60;;;;111635;1241;41236;-60
2022/01/22 09:49:03;;;;;;;15.50;7.10;;;;;-2.80;97392.60;;;;111667;1241;41126;-61
2022/01/22 09:51:55;;;;;;;17.50;7.00;;;;;-2.70;97393.40;;;;111440;1241;41319;-60
2022/01/22 09:54:30;;;;;;;16.20;6.80;;;;;-2.92;97397.60;;;;111478;1241;41276;-60
2022/01/22 09:57:34;;;;;;;14.50;5.90;;;;;-2.88;97401.20;;;;111309;1241;41282;-59
2022/01/22 10:00:25;;;;;;;18.20;6.50;;;;;-2.52;97395.80;;;;111507;1241;41651;-59
2022/01/22 10:02:57;;;;;;;14.30;6.20;;;;;-2.46;97387.40;;;;111457;1244;41157;-60
2022/01/22 10:05:39;;;;;;;15.70;6.90;;;;;-2.50;97385.80;;;;111678;1241;41595;-58
2022/01/22 10:08:39;;;;;;;14.70;6.90;;;;;-2.80;97396.20;;;;111650;1241;41263;-59
2022/01/22 10:11:25;;;;;;;17.10;7.10;;;;;-2.66;97389.60;;;;111512;1242;42274;-59
2022/01/22 10:14:13;;;;;;;26.00;10.20;;;;;-2.36;97382.40;;;;111718;1241;41124;-59
2022/01/22 10:16:47;;;;;;;35.90;15.70;;;;;-2.10;97375.00;;;;111717;1241;41471;-59
2022/01/22 10:19:17;;;;;;;25.00;8.90;;;;;-1.80;97374.80;;;;111713;1241;41954;-59
2022/01/22 10:21:54;;;;;;;45.90;17.10;;;;;-1.68;97372.40;;;;111746;1241;41400;-58
2022/01/22 10:24:37;;;;;;;29.80;13.10;;;;;-1.40;97369.40;;;;111729;1241;41145;-59
2022/01/22 10:27:33;;;;;;;14.30;6.60;;;;;-1.32;97364.20;;;;111449;1243;41419;-58
2022/01/22 10:30:15;;;;;;;18.90;7.90;;;;;-1.02;97362.40;;;;111805;1241;41121;-59
2022/01/22 10:35:33;;;;;;;13.40;6.10;;;;;-1.46;97369.00;;;;111737;1241;41317;-58
2022/01/22 10:38:43;;;;;;;22.40;9.20;;;;;-1.24;97369.60;;;;111556;1243;41926;-59
2022/01/22 10:41:14;;;;;;;38.90;14.20;;;;;-0.90;97363.20;;;;111622;1243;41876;-59
2022/01/22 10:43:52;;;;;;;13.00;5.70;;;;;-0.32;97352.00;;;;111756;1241;41609;-62
2022/01/22 10:46:42;;;;;;;18.60;7.20;;;;;0.44;97349.00;;;;111711;1241;41142;-59
2022/01/22 10:49:15;;;;;;;14.50;6.70;;;;;1.24;97345.00;;;;111778;1241;41150;-59
2022/01/22 10:51:56;;;;;;;13.80;5.70;;;;;1.50;97349.00;;;;111805;1241;41234;-59
2022/01/22 10:54:34;;;;;;;21.10;8.90;;;;;1.38;97341.60;;;;111751;1241;41986;-58
2022/01/22 10:57:20;;;;;;;15.30;5.60;;;;;2.76;97309.80;;;;111798;1241;41620;-59
2022/01/22 10:59:55;;;;;;;15.90;6.50;;;;;4.30;97320.20;;;;111751;1241;42451;-59
2022/01/22 11:02:35;;;;;;;44.40;19.30;;;;;5.20;97316.20;;;;111711;1241;41133;-59
2022/01/22 11:05:06;;;;;;;72.50;28.20;;;;;5.04;97326.60;;;;111661;1241;41250;-61
2022/01/22 11:07:36;;;;;;;16.90;7.20;;;;;4.30;97327.80;;;;111481;1243;41134;-61
2022/01/22 11:10:13;;;;;;;10.70;4.80;;;;;1.90;97341.80;;;;111819;1241;41552;-60
2022/01/22 11:12:42;;;;;;;15.00;7.20;;;;;2.80;97332.80;;;;111513;1241;41128;-60
2022/01/22 11:15:11;;;;;;;12.10;5.90;;;;;2.16;97333.80;;;;111520;1241;40774;-60
2022/01/22 11:17:40;;;;;;;19.80;8.40;;;;;1.72;97336.00;;;;111717;1242;41361;-59
2022/01/22 11:20:13;;;;;;;13.50;5.40;;;;;2.32;97330.20;;;;111666;1243;41313;-58
2022/01/22 11:22:54;;;;;;;13.70;5.40;;;;;2.96;97320.40;;;;111758;1241;42157;-58
2022/01/22 11:25:30;;;;;;;14.40;5.90;;;;;2.52;97317.40;;;;111830;1241;41121;-58
2022/01/22 11:28:01;;;;;;;12.30;5.60;;;;;1.52;97326.00;;;;111731;1241;41993;-61
2022/01/22 11:30:30;;;;;;;18.50;8.50;;;;;2.02;97327.80;;;;111750;1242;42042;-59
2022/01/22 11:33:05;;;;;;;28.00;13.10;;;;;2.00;97325.60;;;;111753;1242;41133;-61
2022/01/22 11:35:53;;;;;;;26.10;13.20;;;;;2.20;97325.00;;;;111478;1241;41111;-59
2022/01/22 11:38:29;;;;;;;13.10;5.90;;;;;1.58;97322.60;;;;111701;1241;41706;-59
2022/01/22 11:41:10;;;;;;;14.00;6.80;;;;;1.50;97329.40;;;;111774;1241;41136;-59
2022/01/22 11:44:05;;;;;;;15.50;7.60;;;;;1.42;97328.00;;;;111794;1241;41360;-60
2022/01/22 11:46:53;;;;;;;14.20;7.10;;;;;1.60;97324.80;;;;111751;1241;41461;-58
2022/01/22 11:49:27;;;;;;;17.20;8.30;;;;;1.60;97321.20;;;;111802;1241;41143;-58
2022/01/22 11:52:23;;;;;;;12.20;6.10;;;;;1.50;97323.60;;;;111723;1241;41298;-59
2022/01/22 11:54:59;;;;;;;13.90;6.30;;;;;1.40;97318.00;;;;111648;1243;41836;-59
2022/01/22 11:57:31;;;;;;;11.00;4.80;;;;;1.40;97316.80;;;;111725;1241;41571;-59
2022/01/22 12:00:23;;;;;;;11.00;4.80;;;;;1.30;97314.60;;;;111806;1241;41152;-59
2022/01/22 12:03:23;;;;;;;12.40;5.30;;;;;1.30;97316.00;;;;111765;1241;41263;-58
2022/01/22 12:06:12;;;;;;;11.80;5.40;;;;;1.40;97319.20;;;;111460;1242;41133;-59
2022/01/22 12:09:04;;;;;;;12.10;4.60;;;;;1.46;97322.00;;;;111802;1241;41358;-59
2022/01/22 12:14:54;;;;;;;11.20;4.60;;;;;1.50;97329.40;;;;111736;1241;41144;-59
2022/01/22 12:17:49;;;;;;;13.40;4.90;;;;;1.30;97332.20;;;;111710;1243;41206;-58
2022/01/22 12:23:19;;;;;;;11.90;5.50;;;;;1.20;97340.20;;;;111751;1241;41180;-60
2022/01/22 12:25:49;;;;;;;11.90;5.20;;;;;1.20;97339.60;;;;111842;1241;42080;-58
2022/01/22 12:28:41;;;;;;;10.40;4.20;;;;;1.20;97343.20;;;;111812;1241;42181;-58
2022/01/22 12:31:15;;;;;;;8.20;3.90;;;;;0.48;97348.80;;;;111788;1241;41578;-56
2022/01/22 12:33:48;;;;;;;11.30;4.80;;;;;0.58;97355.80;;;;111692;1241;41119;-59
2022/01/22 12:36:25;;;;;;;13.70;4.80;;;;;0.40;97359.00;;;;111472;1243;42146;-58
2022/01/22 12:39:18;;;;;;;12.60;4.60;;;;;-0.30;97363.80;;;;111729;1242;41723;-61
2022/01/22 12:41:56;;;;;;;11.30;4.80;;;;;-0.14;97362.40;;;;111778;1241;41250;-58
2022/01/22 12:44:33;;;;;;;12.50;5.30;;;;;-0.10;97367.60;;;;111793;1241;41139;-58
2022/01/22 12:47:09;;;;;;;10.00;4.50;;;;;-0.16;97366.60;;;;111799;1241;42285;-58
2022/01/22 12:49:39;;;;;;;12.70;4.80;;;;;-0.30;97368.00;;;;111635;1241;42578;-58
2022/01/22 12:52:11;;;;;;;9.30;4.10;;;;;-0.20;97364.80;;;;111695;1241;41355;-57
2022/01/22 12:54:45;;;;;;;10.40;4.70;;;;;-0.50;97376.00;;;;111774;1241;41923;-58
2022/01/22 12:57:22;;;;;;;16.30;6.80;;;;;-0.50;97375.00;;;;111728;1241;41143;-58
2022/01/22 13:00:01;;;;;;;;;;;;;-0.50;97374.80;;;;111788;1241;41156;-58
2022/01/22 13:02:53;;;;;;;12.80;5.60;;;;;-0.50;97385.00;;;;111699;1241;41706;-59
2022/01/22 13:05:27;;;;;;;19.50;7.70;;;;;-0.50;97383.20;;;;111797;1241;41128;-60
2022/01/22 13:08:02;;;;;;;12.80;6.10;;;;;-0.50;97385.80;;;;111749;1241;41357;-58
2022/01/22 13:10:45;;;;;;;14.60;6.10;;;;;-0.70;97388.20;;;;111785;1241;42443;-55
2022/01/22 13:13:18;;;;;;;10.60;5.40;;;;;-0.60;97387.80;;;;111755;1241;41140;-60
2022/01/22 13:16:02;;;;;;;11.10;5.10;;;;;-0.56;97385.00;;;;111682;1241;41588;-57
2022/01/22 13:18:43;;;;;;;17.70;7.30;;;;;-0.52;97389.40;;;;111831;1241;41783;-60
2022/01/22 13:21:13;;;;;;;14.40;5.20;;;;;-0.40;97388.20;;;;111712;1242;41150;-59
2022/01/22 13:23:43;;;;;;;12.70;5.50;;;;;-0.32;97391.60;;;;111716;1241;41252;-58
2022/01/22 13:26:12;;;;;;;15.30;5.00;;;;;-0.30;97388.20;;;;111416;1244;41181;-59
2022/01/22 13:28:43;;;;;;;13.30;4.80;;;;;-0.30;97383.60;;;;111722;1243;41173;-59
2022/01/22 13:31:18;;;;;;;14.40;5.00;;;;;-0.16;97382.60;;;;111519;1241;41324;-60
2022/01/22 13:34:00;;;;;;;14.70;6.20;;;;;-0.04;97386.80;;;;111139;1245;41362;-59
2022/01/22 13:36:48;;;;;;;13.40;5.40;;;;;0.74;97373.60;;;;111707;1241;41485;-59
2022/01/22 13:39:58;;;;;;;16.30;7.10;;;;;1.40;97372.60;;;;111573;1241;41142;-58
2022/01/22 13:47:46;;;;;;;14.40;5.50;;;;;1.24;97378.60;;;;111630;1243;42682;-59
2022/01/22 13:50:15;;;;;;;18.20;6.90;;;;;1.22;97383.00;;;;111581;1243;41183;-58
2022/01/22 13:52:44;;;;;;;17.00;7.20;;;;;1.20;97396.20;;;;111188;1242;41663;-58
2022/01/22 13:55:14;;;;;;;32.30;11.20;;;;;1.10;97396.80;;;;111755;1241;42009;-58
2022/01/22 13:57:44;;;;;;;37.40;14.20;;;;;0.90;97390.80;;;;111727;1241;41141;-58
2022/01/22 14:00:17;;;;;;;30.20;11.20;;;;;0.80;97398.80;;;;111667;1243;41192;-58
2022/01/22 14:03:37;;;;;;;43.20;15.80;;;;;0.70;97396.80;;;;111628;1242;41710;-58
2022/01/22 14:06:08;;;;;;;42.50;15.90;;;;;0.50;97405.80;;;;111447;1243;41298;-58
2022/01/22 14:08:37;;;;;;;38.20;13.30;;;;;0.50;97412.40;;;;111655;1241;41146;-58
2022/01/22 14:11:08;;;;;;;29.70;12.00;;;;;0.50;97417.20;;;;111669;1241;41930;-58
2022/01/22 14:13:37;;;;;;;;;;;;;0.46;97424.80;;;;111677;1241;41232;-58
2022/01/22 14:16:22;;;;;;;23.00;11.70;;;;;0.40;97420.00;;;;111658;1243;41770;-58
2022/01/22 14:18:51;;;;;;;12.90;5.80;;;;;0.40;97426.60;;;;111652;1242;41335;-58
2022/01/22 14:21:22;;;;;;;12.60;5.70;;;;;0.28;97428.20;;;;111625;1242;41536;-58
2022/01/22 14:23:52;;;;;;;15.20;8.00;;;;;0.10;97429.60;;;;111438;1242;41516;-60